Sol Duc Hot Springs, Washington
Current Conditions -  °F | °C
As of 10:53 PM on Sunday 23 Nov 2014 (Local Time) from KCLM Reporting Station
Scattered Clouds Scattered Clouds  
Wind Chill: 39°   Ceiling: Unl
Heat Index: 43°   Visibility: 10mi
Dew Point: 36°   Wind: 7mph
Humidity: 76%   Direction: 280°W
Pressure: 30.31"   Gusts: NA
Location:  48.0203°N, 123.478°W
Report Text: KCLM 240653Z AUTO 28006KT 10SM SCT110 06/02 A3031 RMK AO2 SLP266 T00610022 $
Loading
Personal Weather Stations






























Interactive Weather Map New forecast layout! Learn more

10-Day Weather Forecast

Advertisements
Track Severe Weather on mobile